Time;durP1;ratioP1;P1;durP2;ratioP2;P2;SDS_P1;SDS_P2;PMS_P1;PMS_P2;Temp;Humidity;BMP_temperature;BMP_pressure;BME280_temperature;BME280_humidity;BME280_pressure;Samples;Min_cycle;Max_cycle;Signal;HPM_P1;HPM_P2
2023/04/04 00:00:50;;;;;;;3.35;1.85;;;3.50;99.90;;;;;;5055389;28;20799;-83
2023/04/04 00:03:16;;;;;;;3.03;1.92;;;;;;;;;;5041969;28;20058;-83
2023/04/04 00:05:42;;;;;;;5.72;2.20;;;3.10;99.90;;;;;;5060351;28;20131;-83
2023/04/04 00:08:08;;;;;;;4.85;2.28;;;3.40;99.90;;;;;;5047505;28;20138;-82
2023/04/04 00:10:33;;;;;;;4.47;1.70;;;6.40;99.90;;;;;;5047235;28;20039;-85
2023/04/04 00:12:59;;;;;;;3.30;1.95;;;3.00;99.90;;;;;;5091328;28;20736;-82
2023/04/04 00:15:25;;;;;;;4.85;1.90;;;5.70;99.90;;;;;;5047775;28;20399;-82
2023/04/04 00:17:50;;;;;;;3.35;2.03;;;4.80;99.90;;;;;;5062749;28;20043;-81
2023/04/04 00:20:16;;;;;;;4.10;2.00;;;4.10;99.90;;;;;;5071599;28;20051;-86
2023/04/04 00:22:42;;;;;;;4.97;2.17;;;2.50;99.90;;;;;;5070155;28;20043;-84
2023/04/04 00:25:08;;;;;;;2.42;2.00;;;2.60;99.90;;;;;;5053055;28;20100;-85
2023/04/04 00:27:34;;;;;;;4.63;2.10;;;2.80;99.90;;;;;;5076806;28;20040;-84
2023/04/04 00:29:59;;;;;;;3.25;1.95;;;0.60;99.90;;;;;;5048668;28;20039;-84
2023/04/04 00:32:25;;;;;;;6.00;2.10;;;2.50;99.90;;;;;;5075564;28;20103;-85
2023/04/04 00:34:56;;;;;;;5.80;1.60;;;5.10;99.90;;;;;;5060910;28;20058;-84
2023/04/04 00:37:22;;;;;;;4.20;2.05;;;3.00;99.90;;;;;;5041093;28;20450;-84
2023/04/04 00:39:48;;;;;;;6.97;2.35;;;2.70;99.90;;;;;;5052332;28;20483;-84
2023/04/04 00:42:19;;;;;;;4.00;2.00;;;2.70;99.90;;;;;;5088361;28;20051;-82
2023/04/04 00:44:45;;;;;;;4.47;2.05;;;2.70;99.90;;;;;;5052156;28;20044;-83
2023/04/04 00:47:13;;;;;;;2.92;1.77;;;3.80;99.90;;;;;;5051264;28;20052;-84
2023/04/04 00:49:39;;;;;;;4.63;2.15;;;2.70;99.90;;;;;;5059508;28;20488;-84
2023/04/04 00:52:06;;;;;;;3.92;2.30;;;;;;;;;;5074035;28;20129;-83
2023/04/04 00:54:33;;;;;;;4.03;2.15;;;2.50;99.90;;;;;;5108060;28;20511;-85
2023/04/04 00:57:01;;;;;;;2.53;1.88;;;4.60;99.90;;;;;;5089131;28;20044;-84
2023/04/04 00:59:27;;;;;;;5.85;2.40;;;2.40;99.90;;;;;;5099581;28;20059;-85
2023/04/04 01:01:54;;;;;;;4.60;2.10;;;2.70;99.90;;;;;;5090131;28;20115;-85
2023/04/04 01:04:21;;;;;;;2.85;1.70;;;2.50;99.90;;;;;;5079055;28;20071;-84
2023/04/04 01:06:51;;;;;;;5.70;1.77;;;5.50;99.90;;;;;;5092514;28;20083;-85
2023/04/04 01:09:43;;;;;;;4.78;2.40;;;4.70;99.90;;;;;;5075593;28;20270;-84
2023/04/04 01:12:09;;;;;;;4.60;2.17;;;2.60;99.90;;;;;;5056162;28;20059;-84
2023/04/04 01:14:34;;;;;;;4.25;2.45;;;2.20;99.90;;;;;;5059685;28;20396;-82
2023/04/04 01:17:02;;;;;;;4.75;2.13;;;;;;;;;;5062323;28;20640;-83
2023/04/04 01:19:45;;;;;;;5.22;2.50;;;2.50;99.90;;;;;;5071879;28;20036;-83
2023/04/04 01:22:17;;;;;;;5.72;2.35;;;2.10;99.90;;;;;;5058972;28;20049;-83
2023/04/04 01:24:46;;;;;;;3.78;1.92;;;2.40;99.90;;;;;;5061764;28;20052;-84
2023/04/04 01:27:21;;;;;;;5.65;2.20;;;2.30;99.90;;;;;;5089435;28;20172;-83
2023/04/04 01:29:47;;;;;;;4.65;2.40;;;5.20;99.90;;;;;;5088799;28;20077;-84
2023/04/04 01:32:18;;;;;;;5.25;3.00;;;4.40;99.90;;;;;;5071029;28;20063;-84
2023/04/04 01:35:06;;;;;;;5.80;2.80;;;5.30;99.90;;;;;;5088111;28;20076;-84
2023/04/04 01:37:43;;;;;;;5.65;3.60;;;2.30;99.90;;;;;;5089312;28;20123;-83
2023/04/04 01:40:22;;;;;;;3.00;2.10;;;2.40;99.90;;;;;;5117951;27;20070;-85
2023/04/04 01:42:50;;;;;;;5.90;2.70;;;2.30;99.90;;;;;;5090626;28;20509;-84
2023/04/04 01:45:16;;;;;;;7.95;3.20;;;2.00;99.90;;;;;;5057355;28;20054;-86
2023/04/04 01:47:44;;;;;;;3.55;2.33;;;2.10;99.90;;;;;;5092104;28;20044;-86
2023/04/04 01:50:13;;;;;;;7.28;2.80;;;3.80;99.90;;;;;;5095853;28;20060;-83
2023/04/04 01:52:46;;;;;;;6.65;2.75;;;1.90;99.90;;;;;;5081615;28;20058;-87
2023/04/04 01:55:12;;;;;;;6.55;3.00;;;2.10;99.90;;;;;;5053528;28;20097;-85
2023/04/04 01:57:40;;;;;;;7.10;2.50;;;3.90;99.90;;;;;;5068334;28;20036;-83
2023/04/04 02:00:06;;;;;;;4.72;3.00;;;1.40;99.90;;;;;;5064988;28;20092;-85
2023/04/04 02:02:54;;;;;;;4.10;2.40;;;2.00;99.90;;;;;;5096226;28;20043;-83
2023/04/04 02:05:20;;;;;;;5.07;2.40;;;1.70;99.90;;;;;;5063347;28;20039;-85
2023/04/04 02:07:50;;;;;;;5.30;2.30;;;3.50;99.90;;;;;;5100043;28;20487;-85
2023/04/04 02:10:19;;;;;;;6.38;2.92;;;2.20;99.90;;;;;;5067323;28;20046;-84
2023/04/04 02:12:52;;;;;;;6.65;2.50;;;1.30;99.90;;;;;;5065364;28;20048;-86
2023/04/04 02:15:18;;;;;;;6.72;2.95;;;4.60;99.90;;;;;;5091548;28;20055;-84
2023/04/04 02:17:48;;;;;;;4.10;2.90;;;0.60;99.90;;;;;;5112198;27;20039;-83
2023/04/04 02:20:17;;;;;;;7.82;2.58;;;4.80;99.90;;;;;;5052991;28;20126;-85
2023/04/04 02:22:52;;;;;;;5.45;2.50;;;2.20;99.90;;;;;;5096811;28;20178;-83
2023/04/04 02:25:18;;;;;;;8.80;2.85;;;2.40;99.90;;;;;;5051527;28;20074;-86
2023/04/04 02:27:46;;;;;;;7.32;3.42;;;1.60;99.90;;;;;;5078542;28;20059;-83
2023/04/04 02:30:14;;;;;;;4.53;2.83;;;1.60;99.90;;;;;;5083060;28;20047;-86
2023/04/04 02:32:40;;;;;;;5.28;2.50;;;1.60;99.90;;;;;;5111817;28;20071;-85
2023/04/04 02:35:09;;;;;;;9.38;3.88;;;2.50;99.90;;;;;;5094515;28;20491;-85
2023/04/04 02:37:35;;;;;;;7.82;3.22;;;1.70;99.90;;;;;;5056972;28;20384;-85
2023/04/04 02:40:00;;;;;;;5.38;2.60;;;4.50;99.90;;;;;;5098580;28;20030;-82
2023/04/04 02:42:26;;;;;;;4.70;2.97;;;3.20;99.90;;;;;;5095983;28;20031;-82
2023/04/04 02:44:52;;;;;;;7.10;3.33;;;3.20;99.90;;;;;;5081465;28;20125;-84
2023/04/04 02:47:18;;;;;;;4.55;2.70;;;1.60;99.90;;;;;;5094913;28;20047;-83
2023/04/04 02:49:43;;;;;;;6.07;3.00;;;3.80;99.90;;;;;;5087111;28;20479;-83
2023/04/04 02:52:15;;;;;;;4.82;2.85;;;1.40;99.90;;;;;;5098746;28;20897;-83
2023/04/04 02:54:41;;;;;;;4.95;2.65;;;1.50;99.90;;;;;;5060897;28;20039;-86
2023/04/04 02:57:27;;;;;;;3.42;2.42;;;1.50;99.90;;;;;;5096216;28;20036;-81
2023/04/04 02:59:56;;;;;;;6.72;3.45;;;1.40;99.90;;;;;;5095390;28;21037;-82
2023/04/04 03:02:23;;;;;;;4.13;2.50;;;1.50;99.90;;;;;;5084479;28;20027;-81
2023/04/04 03:04:49;;;;;;;3.00;2.58;;;1.20;99.90;;;;;;5084590;28;20056;-86
2023/04/04 03:07:15;;;;;;;3.90;2.35;;;1.30;99.90;;;;;;5051328;28;20094;-85
2023/04/04 03:09:44;;;;;;;5.38;2.75;;;0.70;99.90;;;;;;5100076;28;20050;-82
2023/04/04 03:12:11;;;;;;;4.65;2.80;;;;;;;;;;5066581;28;20070;-83
2023/04/04 03:14:40;;;;;;;5.13;3.35;;;1.40;99.90;;;;;;5098958;28;20483;-83
2023/04/04 03:17:09;;;;;;;5.85;3.03;;;1.40;99.90;;;;;;5079287;28;20105;-85
2023/04/04 03:19:35;;;;;;;7.93;2.72;;;2.80;99.90;;;;;;5080598;28;20043;-83
2023/04/04 03:22:00;;;;;;;3.42;2.22;;;4.40;99.90;;;;;;5062549;28;20654;-83
2023/04/04 03:24:29;;;;;;;5.03;2.63;;;1.30;99.90;;;;;;5084215;28;20044;-85
2023/04/04 03:26:55;;;;;;;5.18;2.70;;;1.40;99.90;;;;;;5069144;28;20108;-84
2023/04/04 03:29:20;;;;;;;5.55;2.88;;;3.10;99.90;;;;;;5079059;28;20499;-83
2023/04/04 03:31:46;;;;;;;6.32;2.97;;;0.40;99.90;;;;;;5079278;28;20061;-85
2023/04/04 03:34:12;;;;;;;7.93;2.97;;;4.00;99.90;;;;;;5098323;28;20860;-86
2023/04/04 03:36:37;;;;;;;5.50;2.47;;;2.40;99.90;;;;;;5112962;27;20410;-84
2023/04/04 03:39:03;;;;;;;3.92;2.90;;;3.50;99.90;;;;;;5083664;28;20095;-85
2023/04/04 03:41:31;;;;;;;6.78;2.85;;;0.90;99.90;;;;;;5095652;28;20065;-85
2023/04/04 03:43:57;;;;;;;3.72;2.92;;;4.00;99.90;;;;;;5057973;28;20774;-85
2023/04/04 03:46:40;;;;;;;5.68;3.05;;;3.40;99.90;;;;;;5070659;28;20479;-85
2023/04/04 03:49:09;;;;;;;5.18;2.67;;;2.20;99.90;;;;;;5081859;28;20059;-83
2023/04/04 03:51:35;;;;;;;5.95;3.22;;;1.60;99.90;;;;;;5087958;28;20048;-84
2023/04/04 03:54:06;;;;;;;4.93;2.75;;;1.20;99.90;;;;;;5107423;28;20036;-82
2023/04/04 03:56:31;;;;;;;4.10;2.65;;;1.30;99.90;;;;;;5091936;28;20036;-82
2023/04/04 03:58:57;;;;;;;4.03;3.03;;;1.00;99.90;;;;;;5106480;28;20530;-83
2023/04/04 04:01:23;;;;;;;3.92;2.70;;;1.30;99.90;;;;;;5089472;28;20051;-82
2023/04/04 04:03:49;;;;;;;5.60;3.65;;;2.00;99.90;;;;;;5083853;28;20043;-82
2023/04/04 04:06:15;;;;;;;3.35;2.35;;;2.30;99.90;;;;;;5082966;28;20051;-83
2023/04/04 04:08:40;;;;;;;4.10;2.83;;;1.20;99.90;;;;;;5083684;28;20564;-84
2023/04/04 04:11:07;;;;;;;4.93;2.58;;;2.20;99.90;;;;;;5082513;28;20054;-86
2023/04/04 04:13:37;;;;;;;4.97;2.40;;;4.20;99.90;;;;;;5060210;28;20028;-83
2023/04/04 04:16:03;;;;;;;5.53;3.15;;;1.30;99.90;;;;;;5079729;28;20059;-83
2023/04/04 04:18:30;;;;;;;5.57;2.88;;;;;;;;;;5081718;28;20399;-82
2023/04/04 04:20:58;;;;;;;5.72;2.25;;;1.30;99.90;;;;;;5095687;28;20490;-83
2023/04/04 04:23:23;;;;;;;5.07;2.80;;;3.80;99.90;;;;;;5100339;28;20045;-82
2023/04/04 04:25:50;;;;;;;5.22;3.22;;;4.20;99.90;;;;;;5112285;28;20032;-82
2023/04/04 04:28:15;;;;;;;3.22;2.42;;;3.40;99.90;;;;;;5084555;28;20574;-82
2023/04/04 04:30:41;;;;;;;7.82;2.70;;;0.30;99.90;;;;;;5090545;28;20135;-86
2023/04/04 04:33:07;;;;;;;6.10;2.95;;;4.00;99.90;;;;;;5110325;28;20039;-84
2023/04/04 04:35:36;;;;;;;5.20;2.33;;;1.10;99.90;;;;;;5075716;28;20050;-82
2023/04/04 04:38:02;;;;;;;3.85;2.67;;;3.80;99.90;;;;;;5076273;28;20031;-84
2023/04/04 04:40:28;;;;;;;5.55;2.60;;;0.80;99.90;;;;;;5073443;28;20547;-83
2023/04/04 04:42:54;;;;;;;3.72;2.65;;;;;;;;;;5092832;28;20096;-82
2023/04/04 04:45:20;;;;;;;5.25;2.72;;;1.10;99.90;;;;;;5110747;28;20164;-83
2023/04/04 04:47:46;;;;;;;8.80;3.88;;;0.50;99.90;;;;;;5109048;28;20131;-84
2023/04/04 04:50:12;;;;;;;7.85;3.08;;;3.30;99.90;;;;;;5068236;28;20051;-82
2023/04/04 04:52:38;;;;;;;7.07;3.35;;;1.00;99.90;;;;;;5081930;28;20070;-87
2023/04/04 04:55:08;;;;;;;9.23;3.28;;;0.80;99.90;;;;;;5049116;28;20059;-83
2023/04/04 04:57:34;;;;;;;5.65;3.10;;;1.00;99.90;;;;;;5064467;28;20043;-83
2023/04/04 05:00:00;;;;;;;4.72;2.50;;;4.10;99.90;;;;;;5093501;28;20491;-84
2023/04/04 05:02:29;;;;;;;3.78;2.47;;;0.90;99.90;;;;;;5074952;28;20051;-83
2023/04/04 05:04:55;;;;;;;7.47;3.42;;;0.70;99.90;;;;;;5064791;28;20583;-83
2023/04/04 05:07:22;;;;;;;6.97;3.13;;;0.60;99.90;;;;;;5068626;28;20036;-86
2023/04/04 05:09:50;;;;;;;5.53;2.80;;;1.50;99.90;;;;;;5097100;28;20052;-83
2023/04/04 05:12:16;;;;;;;5.70;2.67;;;3.80;99.90;;;;;;5058981;28;20130;-83
2023/04/04 05:14:43;;;;;;;5.70;3.40;;;2.60;99.90;;;;;;5114307;27;20063;-83
2023/04/04 05:17:09;;;;;;;9.15;3.05;;;1.00;99.90;;;;;;5082032;28;20044;-83
2023/04/04 05:19:35;;;;;;;5.50;3.53;;;3.10;99.90;;;;;;5069077;28;20051;-83
2023/04/04 05:22:02;;;;;;;9.13;3.72;;;0.90;99.90;;;;;;5086116;28;20032;-81
2023/04/04 05:24:27;;;;;;;4.47;3.53;;;4.00;99.90;;;;;;5098495;28;20570;-81
2023/04/04 05:26:54;;;;;;;8.52;3.80;;;;;;;;;;5079270;28;20107;-81
2023/04/04 05:29:19;;;;;;;8.15;3.50;;;0.90;99.90;;;;;;5065613;28;20118;-83
2023/04/04 05:31:46;;;;;;;7.28;3.15;;;1.50;99.90;;;;;;5100366;28;20135;-82
2023/04/04 05:34:12;;;;;;;6.30;3.55;;;0.90;99.90;;;;;;5106384;28;20046;-82
2023/04/04 05:36:37;;;;;;;4.78;3.20;;;0.60;99.90;;;;;;5084678;28;20373;-83
2023/04/04 05:39:06;;;;;;;6.50;3.47;;;3.70;99.90;;;;;;5094550;28;20089;-83
2023/04/04 05:41:32;;;;;;;4.53;3.08;;;0.40;99.90;;;;;;5073172;28;20443;-84
2023/04/04 05:44:00;;;;;;;7.50;3.47;;;0.70;99.90;;;;;;5073573;28;20040;-82
2023/04/04 05:46:26;;;;;;;12.48;6.45;;;0.90;99.90;;;;;;5093785;28;20042;-82
2023/04/04 05:48:52;;;;;;;9.73;5.22;;;1.50;99.90;;;;;;5047901;28;20051;-82
2023/04/04 05:51:18;;;;;;;5.28;3.50;;;2.40;99.90;;;;;;5089830;28;20044;-87
2023/04/04 05:53:46;;;;;;;4.35;3.65;;;0.90;99.90;;;;;;5107784;27;20647;-82
2023/04/04 05:56:12;;;;;;;5.13;3.28;;;3.60;99.90;;;;;;5088469;28;20062;-82
2023/04/04 05:58:38;;;;;;;5.53;3.22;;;3.40;99.90;;;;;;5086905;28;20052;-82
2023/04/04 06:01:07;;;;;;;6.03;3.45;;;2.30;99.90;;;;;;5086957;28;20407;-82
2023/04/04 06:03:33;;;;;;;4.40;2.95;;;2.90;99.90;;;;;;5075314;28;20422;-82
2023/04/04 06:06:03;;;;;;;5.90;3.50;;;1.20;99.90;;;;;;5085310;28;20042;-85
2023/04/04 06:08:32;;;;;;;5.53;3.13;;;2.00;99.90;;;;;;5110036;28;20047;-82
2023/04/04 06:10:57;;;;;;;6.07;3.28;;;0.90;99.90;;;;;;5094594;28;20529;-86
2023/04/04 06:13:24;;;;;;;3.58;3.15;;;;;;;;;;5075704;28;20035;-81
2023/04/04 06:15:50;;;;;;;7.15;3.00;;;1.00;99.90;;;;;;5072076;28;20039;-82
2023/04/04 06:18:16;;;;;;;7.32;3.50;;;0.90;99.90;;;;;;5074852;28;20047;-84
2023/04/04 06:20:42;;;;;;;4.97;2.95;;;1.00;99.90;;;;;;5089181;28;20043;-82
2023/04/04 06:23:09;;;;;;;7.80;3.15;;;0.80;99.90;;;;;;5072082;28;20054;-82
2023/04/04 06:25:37;;;;;;;6.03;2.58;;;0.90;99.90;;;;;;5070678;28;20505;-82
2023/04/04 06:28:03;;;;;;;5.95;2.67;;;0.80;99.90;;;;;;5088769;28;20865;-83
2023/04/04 06:30:29;;;;;;;6.15;3.13;;;1.20;99.90;;;;;;5072475;28;20047;-82
2023/04/04 06:32:56;;;;;;;6.25;3.03;;;1.10;99.90;;;;;;5104045;28;20046;-80
2023/04/04 06:35:22;;;;;;;6.65;2.83;;;4.10;99.90;;;;;;5089255;28;20650;-79
2023/04/04 06:37:53;;;;;;;6.78;2.63;;;0.70;99.90;;;;;;5107693;28;20039;-83
2023/04/04 06:40:19;;;;;;;4.40;2.78;;;1.00;99.90;;;;;;5075043;27;20044;-82
2023/04/04 06:42:50;;;;;;;5.75;2.40;;;1.20;99.90;;;;;;5077640;27;20037;-80
2023/04/04 06:45:16;;;;;;;6.85;3.47;;;3.20;99.90;;;;;;5087188;28;20054;-81
2023/04/04 06:47:42;;;;;;;4.35;2.17;;;1.10;99.90;;;;;;5089070;28;20035;-81
2023/04/04 06:50:08;;;;;;;9.38;2.30;;;1.20;99.90;;;;;;5088911;28;20054;-81
2023/04/04 06:52:34;;;;;;;3.85;2.10;;;1.50;99.90;;;;;;5074089;27;20154;-83
2023/04/04 06:55:00;;;;;;;3.65;2.67;;;1.50;99.90;;;;;;5067667;28;20123;-82
2023/04/04 06:57:26;;;;;;;8.82;2.40;;;4.60;99.90;;;;;;5077449;28;20063;-82
2023/04/04 06:59:51;;;;;;;4.03;1.95;;;1.50;99.90;;;;;;5112587;28;20523;-82
2023/04/04 07:02:17;;;;;;;6.38;2.38;;;1.70;99.90;;;;;;5087404;28;20040;-82
2023/04/04 07:04:43;;;;;;;2.25;1.48;;;1.70;99.90;;;;;;5105513;27;20046;-82
2023/04/04 07:07:08;;;;;;;6.47;2.33;;;1.80;99.90;;;;;;5096850;27;20349;-82
2023/04/04 07:09:34;;;;;;;5.60;2.17;;;1.90;99.90;;;;;;5109432;27;20040;-81
2023/04/04 07:12:00;;;;;;;2.33;1.92;;;2.00;99.90;;;;;;5103481;28;20097;-83
2023/04/04 07:14:25;;;;;;;2.60;1.88;;;1.90;99.90;;;;;;5109353;27;20143;-81
2023/04/04 07:16:51;;;;;;;3.88;1.80;;;2.10;99.90;;;;;;5077199;27;20047;-81
2023/04/04 07:19:17;;;;;;;3.53;1.60;;;2.50;99.90;;;;;;5074917;27;20035;-83
2023/04/04 07:21:43;;;;;;;4.07;1.70;;;4.60;99.90;;;;;;5097984;27;20035;-84
2023/04/04 07:24:09;;;;;;;3.25;1.42;;;2.20;99.90;;;;;;5114427;27;20051;-83
2023/04/04 07:26:36;;;;;;;4.00;1.70;;;2.40;99.90;;;;;;5096876;28;20093;-84
2023/04/04 07:29:01;;;;;;;7.38;1.55;;;2.40;99.90;;;;;;5077664;27;20105;-83
2023/04/04 07:31:27;;;;;;;4.50;1.42;;;5.10;99.90;;;;;;5094140;28;20128;-81
2023/04/04 07:33:53;;;;;;;3.97;1.60;;;2.40;99.90;;;;;;5076389;27;20036;-81
2023/04/04 07:36:20;;;;;;;3.78;1.88;;;4.80;99.90;;;;;;5108917;27;20091;-83
2023/04/04 07:38:46;;;;;;;6.05;1.45;;;2.40;99.90;;;;;;5083894;27;20043;-81
2023/04/04 07:41:11;;;;;;;6.38;1.45;;;3.10;99.90;;;;;;5076562;28;20544;-81
2023/04/04 07:43:37;;;;;;;5.47;1.67;;;2.50;99.90;;;;;;5075603;28;20042;-84
2023/04/04 07:46:03;;;;;;;5.10;1.77;;;4.40;99.90;;;;;;5074786;28;20071;-84
2023/04/04 07:48:29;;;;;;;4.85;1.92;;;4.10;99.90;;;;;;5075133;28;20098;-81
2023/04/04 07:50:59;;;;;;;4.78;2.00;;;4.80;99.90;;;;;;5101651;28;20031;-82
2023/04/04 07:53:24;;;;;;;3.50;1.80;;;4.50;99.90;;;;;;5084525;28;20130;-82
2023/04/04 07:55:51;;;;;;;2.47;1.48;;;2.80;99.90;;;;;;5080051;27;20168;-83
2023/04/04 07:58:16;;;;;;;3.83;1.65;;;5.30;99.90;;;;;;5076192;28;20038;-82
2023/04/04 08:00:45;;;;;;;4.07;1.40;;;5.00;99.90;;;;;;5105412;27;20532;-82
2023/04/04 08:03:11;;;;;;;2.35;0.95;;;3.30;99.90;;;;;;5086788;28;20619;-84
2023/04/04 08:05:36;;;;;;;3.33;1.30;;;3.50;99.90;;;;;;5110579;27;20492;-82
2023/04/04 08:08:02;;;;;;;2.45;1.17;;;4.30;99.90;;;;;;5126870;27;20031;-86
2023/04/04 08:10:27;;;;;;;4.43;1.13;;;6.20;99.90;;;;;;5092231;28;20044;-80
2023/04/04 08:12:53;;;;;;;2.15;0.93;;;3.40;99.90;;;;;;5088487;28;20032;-83
2023/04/04 08:15:19;;;;;;;5.13;1.00;;;3.50;99.90;;;;;;5100090;27;20126;-83
2023/04/04 08:17:46;;;;;;;2.65;1.30;;;6.20;99.90;;;;;;5068776;27;20487;-82
2023/04/04 08:20:12;;;;;;;2.85;1.20;;;5.90;99.90;;;;;;5064634;28;20106;-82
2023/04/04 08:22:39;;;;;;;5.90;1.23;;;3.90;99.90;;;;;;5105825;28;20028;-82
2023/04/04 08:25:05;;;;;;;4.00;1.10;;;3.90;99.90;;;;;;5098879;28;20051;-82
2023/04/04 08:27:31;;;;;;;3.60;1.58;;;4.00;99.90;;;;;;5117653;27;20043;-82
2023/04/04 08:29:57;;;;;;;4.38;1.38;;;6.70;99.90;;;;;;5075813;28;20487;-83
2023/04/04 08:32:23;;;;;;;3.63;1.08;;;4.30;99.90;;;;;;5054583;28;20472;-81
2023/04/04 08:34:50;;;;;;;3.38;1.15;;;4.10;99.90;;;;;;5075549;28;20578;-82
2023/04/04 08:37:18;;;;;;;1.65;0.80;;;6.00;99.90;;;;;;5088735;28;20495;-81
2023/04/04 08:39:44;;;;;;;2.60;1.00;;;7.20;99.90;;;;;;5074263;28;20123;-83
2023/04/04 08:42:11;;;;;;;3.35;1.00;;;4.70;99.90;;;;;;5093006;28;20036;-82
2023/04/04 08:44:58;;;;;;;5.05;1.05;;;7.00;99.90;;;;;;5090473;28;20044;-83
2023/04/04 08:47:27;;;;;;;4.32;1.20;;;4.40;99.90;;;;;;5116707;27;20103;-83
2023/04/04 08:49:53;;;;;;;2.13;1.08;;;5.70;99.90;;;;;;5084493;28;20051;-82
2023/04/04 08:52:21;;;;;;;5.45;0.95;;;7.00;99.90;;;;;;5082691;28;20593;-83
2023/04/04 08:54:51;;;;;;;3.10;1.10;;;7.30;99.90;;;;;;5079616;28;20043;-84
2023/04/04 08:57:17;;;;;;;3.28;0.60;;;4.60;99.90;;;;;;5096938;28;20039;-83
2023/04/04 08:59:42;;;;;;;3.13;1.40;;;4.70;99.90;;;;;;5081831;28;20085;-83
2023/04/04 09:02:08;;;;;;;5.68;1.50;;;4.80;99.90;;;;;;5097479;28;20043;-83
2023/04/04 09:04:34;;;;;;;2.75;0.90;;;4.80;99.90;;;;;;5076148;28;20391;-82
2023/04/04 09:07:02;;;;;;;5.32;1.10;;;4.90;99.90;;;;;;5095040;28;20375;-82
2023/04/04 09:09:31;;;;;;;2.92;1.10;;;5.40;99.90;;;;;;5096318;27;20040;-83
2023/04/04 09:11:59;;;;;;;5.93;1.00;;;5.00;99.90;;;;;;5108546;27;20509;-82
2023/04/04 09:14:26;;;;;;;2.72;1.30;;;4.90;99.90;;;;;;5116301;27;20572;-83
2023/04/04 09:16:52;;;;;;;4.05;1.35;;;5.10;99.90;;;;;;5097587;27;20521;-83
2023/04/04 09:19:18;;;;;;;3.60;0.85;;;7.40;99.90;;;;;;5076298;28;20067;-82
2023/04/04 09:21:48;;;;;;;4.32;1.15;;;4.70;99.90;;;;;;5078229;28;20044;-80
2023/04/04 09:24:14;;;;;;;4.25;1.23;;;5.40;99.90;;;;;;5096686;28;20059;-83
2023/04/04 09:26:47;;;;;;;4.85;1.17;;;7.30;99.90;;;;;;5115814;28;20040;-84
2023/04/04 09:29:19;;;;;;;2.72;0.68;;;5.30;99.90;;;;;;5099570;28;20040;-84
2023/04/04 09:31:45;;;;;;;2.58;0.90;;;7.00;99.90;;;;;;5121379;28;20027;-84
2023/04/04 09:34:16;;;;;;;2.92;1.00;;;5.20;99.90;;;;;;5104841;28;20031;-83
2023/04/04 09:36:44;;;;;;;4.18;1.20;;;5.50;99.90;;;;;;5117680;28;20067;-84
2023/04/04 09:39:11;;;;;;;4.03;1.10;;;7.30;99.90;;;;;;5117568;28;20047;-84
2023/04/04 09:41:38;;;;;;;3.60;1.35;;;8.00;99.90;;;;;;5098192;28;20406;-85
2023/04/04 09:44:06;;;;;;;4.68;1.27;;;7.50;99.90;;;;;;5082101;28;20047;-84
2023/04/04 09:46:33;;;;;;;1.38;0.80;;;;;;;;;;5116765;27;20039;-85
2023/04/04 09:48:59;;;;;;;5.00;1.45;;;5.90;99.90;;;;;;5098140;28;20032;-85
2023/04/04 09:51:34;;;;;;;1.48;0.93;;;5.40;99.90;;;;;;5082062;28;20051;-85
2023/04/04 09:54:00;;;;;;;6.38;1.77;;;8.40;99.90;;;;;;5099382;28;20118;-85
2023/04/04 09:56:26;;;;;;;5.45;1.75;;;6.00;99.90;;;;;;5081380;28;20126;-85
2023/04/04 09:58:53;;;;;;;2.83;1.30;;;8.70;99.90;;;;;;5095787;28;20071;-85
2023/04/04 10:01:19;;;;;;;4.10;1.70;;;8.70;99.90;;;;;;5095609;28;20584;-85
2023/04/04 10:03:54;;;;;;;4.18;1.70;;;6.20;99.90;;;;;;5074913;28;20031;-85
2023/04/04 10:06:21;;;;;;;4.28;1.33;;;6.30;99.90;;;;;;5078417;28;20044;-85
2023/04/04 10:08:47;;;;;;;3.38;1.50;;;6.30;99.90;;;;;;5078628;28;20049;-85
2023/04/04 10:11:33;;;;;;;5.00;1.42;;;8.30;99.90;;;;;;5094722;28;20058;-85
2023/04/04 10:14:01;;;;;;;6.28;1.67;;;6.30;99.90;;;;;;5078519;28;20040;-85
2023/04/04 10:16:30;;;;;;;4.30;1.50;;;7.90;99.90;;;;;;5078131;28;20047;-85
2023/04/04 10:18:57;;;;;;;3.78;1.42;;;9.10;99.90;;;;;;5095433;28;20466;-85
2023/04/04 10:21:23;;;;;;;3.72;1.65;;;6.70;99.90;;;;;;5061847;28;20403;-85
2023/04/04 10:23:51;;;;;;;7.47;1.95;;;6.00;99.90;;;;;;5094641;28;20032;-85
2023/04/04 10:26:17;;;;;;;6.80;2.08;;;8.90;99.90;;;;;;5077984;28;20047;-85
2023/04/04 10:28:43;;;;;;;5.35;1.90;;;6.30;99.90;;;;;;5078500;28;20036;-84
2023/04/04 10:31:23;;;;;;;4.93;1.95;;;8.60;99.90;;;;;;5077327;28;20055;-85
2023/04/04 10:34:11;;;;;;;7.40;1.80;;;6.80;99.90;;;;;;5094906;28;20472;-85
2023/04/04 10:37:11;;;;;;;6.75;1.75;;;6.90;99.90;;;;;;5071731;28;20050;-85
2023/04/04 10:39:48;;;;;;;5.68;1.83;;;6.90;99.90;;;;;;5106034;27;20062;-85
2023/04/04 10:42:17;;;;;;;3.20;1.67;;;6.90;99.90;;;;;;5094903;28;20157;-85
2023/04/04 10:44:44;;;;;;;11.30;2.20;;;6.90;99.90;;;;;;5093969;28;20042;-85
2023/04/04 10:47:20;;;;;;;11.48;1.60;;;8.90;99.90;;;;;;5077624;28;20036;-85
2023/04/04 10:49:47;;;;;;;4.55;1.83;;;7.30;99.90;;;;;;5077499;28;20043;-85
2023/04/04 10:52:16;;;;;;;4.38;1.60;;;8.90;99.90;;;;;;5093453;28;20051;-85
2023/04/04 10:54:43;;;;;;;6.63;1.63;;;9.60;99.90;;;;;;5110822;27;20075;-85
2023/04/04 10:57:10;;;;;;;5.20;1.58;;;7.40;99.90;;;;;;5092789;28;20132;-85
2023/04/04 11:00:09;;;;;;;4.57;1.65;;;7.60;99.90;;;;;;5076532;28;20043;-86
2023/04/04 11:02:58;;;;;;;2.72;1.55;;;7.60;99.90;;;;;;5102556;28;20047;-85
2023/04/04 11:05:36;;;;;;;4.20;1.17;;;7.70;99.90;;;;;;5085686;28;20411;-85
2023/04/04 11:08:04;;;;;;;3.47;1.88;;;9.60;99.90;;;;;;5077646;28;20043;-85
2023/04/04 11:10:40;;;;;;;8.75;1.70;;;8.40;99.90;;;;;;5118938;28;20020;-85
2023/04/04 11:13:12;;;;;;;3.58;1.77;;;8.20;99.90;;;;;;5119959;28;20031;-85
2023/04/04 11:16:14;;;;;;;5.32;1.60;;;10.20;99.90;;;;;;5094254;28;20510;-85
2023/04/04 11:18:44;;;;;;;5.63;1.48;;;11.00;99.90;;;;;;5079673;28;20046;-85
2023/04/04 11:21:31;;;;;;;10.43;2.30;;;9.60;99.90;;;;;;5076441;28;20051;-85
2023/04/04 11:24:03;;;;;;;3.63;1.85;;;10.70;99.90;;;;;;5094134;28;20080;-85
2023/04/04 11:26:29;;;;;;;3.88;1.92;;;8.70;99.90;;;;;;5085783;28;20070;-85
2023/04/04 11:29:02;;;;;;;3.13;1.95;;;10.80;99.90;;;;;;5073327;28;20040;-85
2023/04/04 11:31:41;;;;;;;5.03;1.97;;;8.90;99.90;;;;;;5061121;28;20051;-85
2023/04/04 11:34:09;;;;;;;3.67;2.10;;;11.20;99.90;;;;;;5111605;28;20027;-85
2023/04/04 11:36:39;;;;;;;5.82;1.73;;;9.00;99.90;;;;;;5077006;28;20046;-85
2023/04/04 11:39:24;;;;;;;4.65;1.60;;;11.20;99.90;;;;;;5112579;28;20038;-85
2023/04/04 11:42:13;;;;;;;4.65;2.03;;;9.60;99.90;;;;;;5076296;28;20436;-85
2023/04/04 11:44:41;;;;;;;8.48;1.75;;;9.20;99.90;;;;;;5087182;28;20105;-85
2023/04/04 11:47:12;;;;;;;7.13;1.90;;;9.40;99.90;;;;;;5064045;28;20028;-85
2023/04/04 11:49:42;;;;;;;3.53;1.63;;;9.50;99.90;;;;;;5092833;28;20039;-85
2023/04/04 11:52:10;;;;;;;3.05;1.60;;;9.60;99.90;;;;;;5076286;28;20142;-85
2023/04/04 11:54:38;;;;;;;4.40;2.15;;;11.50;99.90;;;;;;5076341;28;20046;-86
2023/04/04 11:57:11;;;;;;;5.15;1.95;;;9.30;99.90;;;;;;5093131;28;20051;-86
2023/04/04 11:59:48;;;;;;;4.10;1.70;;;9.70;99.50;;;;;;5093051;28;20540;-85
2023/04/04 12:02:26;;;;;;;5.95;1.90;;;9.70;98.80;;;;;;5092946;28;20530;-86
2023/04/04 12:04:52;;;;;;;9.38;2.05;;;;;;;;;;5087884;28;20506;-85
2023/04/04 12:07:19;;;;;;;3.50;2.13;;;;;;;;;;5106813;28;20044;-86
2023/04/04 12:09:45;;;;;;;5.03;2.50;;;9.70;97.70;;;;;;5075022;28;20562;-86
2023/04/04 12:12:15;;;;;;;3.70;1.88;;;9.90;98.40;;;;;;5074659;28;20514;-85
2023/04/04 12:14:41;;;;;;;4.53;2.03;;;10.20;97.80;;;;;;5088062;28;20035;-85
2023/04/04 12:17:08;;;;;;;2.38;1.88;;;;;;;;;;5107915;28;20536;-85
2023/04/04 12:19:39;;;;;;;6.78;2.17;;;10.10;97.60;;;;;;5074051;28;20084;-85
2023/04/04 12:22:08;;;;;;;;;;;10.50;97.30;;;;;;5090126;28;20097;-85
2023/04/04 12:24:35;;;;;;;5.68;1.92;;;10.90;97.10;;;;;;5073875;28;19963;-85
2023/04/04 12:27:05;;;;;;;4.13;1.85;;;10.30;98.00;;;;;;5090307;28;20070;-86
2023/04/04 12:29:35;;;;;;;3.85;2.03;;;11.00;98.50;;;;;;5088453;28;20044;-85
2023/04/04 12:32:05;;;;;;;4.13;2.00;;;11.10;97.90;;;;;;5072676;28;20047;-85
2023/04/04 12:34:33;;;;;;;4.00;2.22;;;10.70;97.60;;;;;;5061673;28;20506;-85
2023/04/04 12:37:01;;;;;;;3.38;1.95;;;10.80;97.30;;;;;;5075519;28;20061;-85
2023/04/04 12:39:28;;;;;;;3.92;2.10;;;11.00;96.50;;;;;;5084099;28;20046;-85
2023/04/04 12:41:56;;;;;;;5.85;2.20;;;8.80;96.30;;;;;;5076084;28;20032;-85
2023/04/04 12:44:36;;;;;;;4.03;2.38;;;10.90;96.60;;;;;;5073744;28;20047;-85
2023/04/04 12:47:07;;;;;;;5.20;2.85;;;12.20;96.70;;;;;;5094328;28;20044;-85
2023/04/04 12:49:47;;;;;;;10.43;5.18;;;11.20;96.70;;;;;;5117408;28;20039;-85
2023/04/04 12:52:26;;;;;;;4.45;2.22;;;11.20;96.40;;;;;;5106921;28;20052;-84
2023/04/04 12:54:53;;;;;;;4.40;2.45;;;13.10;96.50;;;;;;5073894;28;20043;-84
2023/04/04 12:57:21;;;;;;;6.40;2.47;;;11.40;95.90;;;;;;5083808;28;20176;-84
2023/04/04 12:59:47;;;;;;;3.80;1.63;;;12.30;94.10;;;;;;5089321;28;20047;-85
2023/04/04 13:02:16;;;;;;;5.45;2.85;;;12.40;94.90;;;;;;5100434;28;20134;-85
2023/04/04 13:04:46;;;;;;;3.88;2.55;;;11.00;94.60;;;;;;5101721;28;20498;-85
2023/04/04 13:07:26;;;;;;;4.13;1.75;;;10.00;94.90;;;;;;5109675;28;20044;-85